createdAt,value
2017-07-28T00:01:48.637Z,5.40
2017-07-28T00:04:18.076Z,3.90
2017-07-28T00:06:47.520Z,4.57
2017-07-28T00:09:17.109Z,4.57
2017-07-28T00:11:46.605Z,4.07
2017-07-28T00:14:16.059Z,4.17
2017-07-28T00:16:45.504Z,7.10
2017-07-28T00:19:14.970Z,4.63
2017-07-28T00:21:44.417Z,4.10
2017-07-28T00:24:13.881Z,4.60
2017-07-28T00:26:43.336Z,3.93
2017-07-28T00:29:12.781Z,5.30
2017-07-28T00:31:42.224Z,4.40
2017-07-28T00:34:11.683Z,7.10
2017-07-28T00:36:41.132Z,4.57
2017-07-28T00:39:10.575Z,4.33
2017-07-28T00:41:40.001Z,4.80
2017-07-28T00:44:09.442Z,8.03
2017-07-28T00:46:38.893Z,4.40
2017-07-28T00:49:08.349Z,5.47
2017-07-28T00:51:37.811Z,5.40
2017-07-28T00:54:07.268Z,7.87
2017-07-28T00:56:36.700Z,5.17
2017-07-28T00:59:06.137Z,6.20
2017-07-28T01:01:35.652Z,8.53
2017-07-28T01:04:05.108Z,5.27
2017-07-28T01:06:34.554Z,5.67
2017-07-28T01:09:03.209Z,6.00
2017-07-28T01:11:32.468Z,7.37
2017-07-28T01:14:01.905Z,4.70
2017-07-28T01:16:31.364Z,5.30
2017-07-28T01:19:00.880Z,4.97
2017-07-28T01:21:30.317Z,6.67
2017-07-28T01:23:59.764Z,5.50
2017-07-28T01:26:29.196Z,4.63
2017-07-28T01:28:58.636Z,5.30
2017-07-28T01:31:28.084Z,5.10
2017-07-28T01:33:57.513Z,5.30
2017-07-28T01:36:26.952Z,6.33
2017-07-28T01:38:56.396Z,7.40
2017-07-28T01:41:25.840Z,9.90
2017-07-28T01:43:55.332Z,12.50
2017-07-28T01:46:24.857Z,11.53
2017-07-28T01:48:54.296Z,9.37
2017-07-28T01:51:23.737Z,8.73
2017-07-28T01:53:53.266Z,13.30
2017-07-28T01:56:22.704Z,10.43
2017-07-28T01:58:52.141Z,10.87
2017-07-28T02:01:21.239Z,8.90
2017-07-28T02:03:50.672Z,9.93
2017-07-28T02:06:20.131Z,10.97
2017-07-28T02:08:49.576Z,10.67
2017-07-28T02:11:19.028Z,13.73
2017-07-28T02:13:48.485Z,11.33
2017-07-28T02:16:17.936Z,9.37
2017-07-28T02:18:47.383Z,8.00
2017-07-28T02:21:16.828Z,7.73
2017-07-28T02:23:46.282Z,11.33
2017-07-28T02:26:16.005Z,13.02
2017-07-28T02:28:45.461Z,10.87
2017-07-28T02:31:15.197Z,9.85
2017-07-28T02:33:44.639Z,7.20
2017-07-28T02:36:14.092Z,9.77
2017-07-28T02:38:43.567Z,9.60
2017-07-28T02:41:12.999Z,13.70
2017-07-28T02:43:42.454Z,10.43
2017-07-28T02:46:11.907Z,15.37
2017-07-28T02:48:41.359Z,19.97
2017-07-28T02:51:10.817Z,13.57
2017-07-28T02:53:40.276Z,16.20
2017-07-28T02:56:10.041Z,17.10
2017-07-28T02:58:39.489Z,16.43
2017-07-28T03:01:09.253Z,15.48
2017-07-28T03:03:38.705Z,13.47
2017-07-28T03:06:08.144Z,14.30
2017-07-28T03:08:37.913Z,15.75
2017-07-28T03:11:07.670Z,19.95
2017-07-28T03:13:37.115Z,16.10
2017-07-28T03:16:06.862Z,18.90
2017-07-28T03:18:36.611Z,19.35
2017-07-28T03:21:06.104Z,18.50
2017-07-28T03:23:35.828Z,17.10
2017-07-28T03:26:05.573Z,18.25
2017-07-28T03:28:35.032Z,24.33
2017-07-28T03:31:04.774Z,23.25
2017-07-28T03:33:34.528Z,18.87
2017-07-28T03:36:04.292Z,16.98
2017-07-28T03:38:34.034Z,20.08
2017-07-28T03:41:03.785Z,19.02
2017-07-28T03:43:33.237Z,18.70
2017-07-28T03:46:02.716Z,25.40
2017-07-28T03:48:32.449Z,17.27
2017-07-28T03:51:02.196Z,15.05
2017-07-28T03:53:31.969Z,17.75
2017-07-28T03:56:01.728Z,15.90
2017-07-28T03:58:31.537Z,13.77
2017-07-28T04:01:00.996Z,16.53
2017-07-28T04:03:30.737Z,19.37
2017-07-28T04:06:00.186Z,16.30
2017-07-28T04:08:29.647Z,12.20
2017-07-28T04:10:59.393Z,17.20
2017-07-28T04:13:28.852Z,18.03
2017-07-28T04:15:58.316Z,18.77
2017-07-28T04:18:27.769Z,15.10
2017-07-28T04:20:57.222Z,14.50
2017-07-28T04:23:26.705Z,15.53
2017-07-28T04:25:56.144Z,18.83
2017-07-28T04:28:25.604Z,14.47
2017-07-28T04:30:55.356Z,13.50
2017-07-28T04:33:24.811Z,12.57
2017-07-28T04:35:54.277Z,17.33
2017-07-28T04:38:23.717Z,10.63
2017-07-28T04:40:53.171Z,15.47
2017-07-28T04:43:22.927Z,17.60
2017-07-28T04:45:52.039Z,12.53
2017-07-28T04:48:21.500Z,16.00
2017-07-28T04:50:50.945Z,13.60
2017-07-28T04:53:20.387Z,15.10
2017-07-28T04:55:49.853Z,14.20
2017-07-28T04:58:19.328Z,15.30
2017-07-28T05:00:48.780Z,15.33
2017-07-28T05:03:18.269Z,16.97
2017-07-28T05:05:47.729Z,14.20
2017-07-28T05:08:17.185Z,14.57
2017-07-28T05:10:46.658Z,16.67
2017-07-28T05:13:16.235Z,18.33
2017-07-28T05:15:45.697Z,18.00
2017-07-28T05:18:15.297Z,12.90
2017-07-28T05:20:44.755Z,17.00
2017-07-28T05:23:14.216Z,18.00
2017-07-28T05:25:43.673Z,11.97
2017-07-28T05:28:13.156Z,15.67
2017-07-28T05:30:42.612Z,12.07
2017-07-28T05:33:12.068Z,14.23
2017-07-28T05:35:41.625Z,14.13
2017-07-28T05:38:11.068Z,10.87
2017-07-28T05:40:40.521Z,9.67
2017-07-28T05:43:09.990Z,11.30
2017-07-28T05:45:39.432Z,10.33
2017-07-28T05:48:08.874Z,7.20
2017-07-28T05:50:38.307Z,6.60
2017-07-28T05:53:07.766Z,6.33
2017-07-28T05:55:37.197Z,7.53
2017-07-28T05:58:07.497Z,5.70
2017-07-28T06:00:36.921Z,4.60
2017-07-28T06:03:06.356Z,5.47
2017-07-28T06:05:35.804Z,8.33
2017-07-28T06:08:05.243Z,5.80
2017-07-28T06:10:34.691Z,12.47
2017-07-28T06:13:04.142Z,5.57
2017-07-28T06:15:33.597Z,6.13
2017-07-28T06:18:03.024Z,4.47
2017-07-28T06:20:32.469Z,3.63
2017-07-28T06:23:01.918Z,3.57
2017-07-28T06:25:31.360Z,4.23
2017-07-28T06:28:00.817Z,3.00
2017-07-28T06:30:30.252Z,3.30
2017-07-28T06:32:59.697Z,7.83
2017-07-28T06:35:29.152Z,4.10
2017-07-28T06:37:58.618Z,2.90
2017-07-28T06:40:27.853Z,2.77
2017-07-28T06:42:57.335Z,2.70
2017-07-28T06:45:26.789Z,2.40
2017-07-28T06:47:56.224Z,3.27
2017-07-28T06:50:25.688Z,2.53
2017-07-28T06:52:56.811Z,5.03
2017-07-28T06:55:26.351Z,3.00
2017-07-28T06:57:55.821Z,3.03
2017-07-28T07:00:25.261Z,2.60
2017-07-28T07:02:54.709Z,2.80
2017-07-28T07:05:24.167Z,2.50
2017-07-28T07:07:53.621Z,3.20
2017-07-28T07:10:23.081Z,2.40
2017-07-28T07:12:52.536Z,3.40
2017-07-28T07:15:22.002Z,1.90
2017-07-28T07:17:51.442Z,2.10
2017-07-28T07:20:20.938Z,2.00
2017-07-28T07:22:50.376Z,2.13
2017-07-28T07:25:19.848Z,1.80
2017-07-28T07:27:49.285Z,3.53
2017-07-28T07:30:18.756Z,2.70
2017-07-28T07:32:48.205Z,5.23
2017-07-28T07:35:17.680Z,3.28
2017-07-28T07:37:47.124Z,1.93
2017-07-28T07:40:17.302Z,2.50
2017-07-28T07:42:47.012Z,2.57
2017-07-28T07:45:17.120Z,1.97
2017-07-28T07:47:47.146Z,3.83
2017-07-28T07:50:17.106Z,2.40
2017-07-28T07:52:47.031Z,2.00
2017-07-28T07:55:16.523Z,2.27
2017-07-28T07:57:46.141Z,2.60
2017-07-28T08:00:15.596Z,2.47
2017-07-28T08:02:44.872Z,2.97
2017-07-28T08:05:14.377Z,3.03
2017-07-28T08:07:43.820Z,2.30
2017-07-28T08:10:13.267Z,2.50
2017-07-28T08:12:42.538Z,2.10
2017-07-28T08:15:12.204Z,2.50
2017-07-28T08:17:41.644Z,2.30
2017-07-28T08:20:13.400Z,3.37
2017-07-28T08:22:43.275Z,3.20
2017-07-28T08:25:13.116Z,2.40
2017-07-28T08:27:42.560Z,3.10
2017-07-28T08:30:12.045Z,2.90
2017-07-28T08:32:41.468Z,3.10
2017-07-28T08:35:10.955Z,2.23
2017-07-28T08:37:40.403Z,2.63
2017-07-28T08:40:09.893Z,2.40
2017-07-28T08:42:39.305Z,2.27
2017-07-28T08:45:08.823Z,7.03
2017-07-28T08:47:38.260Z,2.57
2017-07-28T08:50:07.759Z,2.73
2017-07-28T08:52:37.179Z,4.90
2017-07-28T08:55:06.657Z,2.30
2017-07-28T08:57:36.131Z,4.40
2017-07-28T09:00:05.744Z,3.80
2017-07-28T09:02:35.180Z,2.83
2017-07-28T09:05:04.677Z,2.30
2017-07-28T09:07:34.129Z,2.67
2017-07-28T09:10:03.628Z,2.87
2017-07-28T09:12:33.070Z,2.53
2017-07-28T09:15:02.565Z,2.63
2017-07-28T09:17:32.060Z,2.07
2017-07-28T09:20:01.572Z,2.43
2017-07-28T09:22:31.047Z,2.00
2017-07-28T09:25:00.499Z,2.27
2017-07-28T09:27:29.959Z,2.00
2017-07-28T09:29:59.394Z,4.57
2017-07-28T09:32:28.854Z,3.53
2017-07-28T09:34:58.298Z,2.40
2017-07-28T09:37:27.764Z,2.37
2017-07-28T09:39:57.210Z,2.40
2017-07-28T09:42:26.655Z,2.57
2017-07-28T09:44:56.084Z,4.40
2017-07-28T09:47:25.605Z,1.90
2017-07-28T09:49:55.029Z,2.23
2017-07-28T09:52:24.458Z,2.33
2017-07-28T09:54:53.909Z,3.73
2017-07-28T09:57:23.380Z,2.23
2017-07-28T09:59:52.819Z,2.27
2017-07-28T10:02:22.259Z,2.83
2017-07-28T10:04:51.718Z,2.40
2017-07-28T10:07:21.144Z,2.20
2017-07-28T10:09:50.609Z,2.23
2017-07-28T10:12:20.048Z,1.97
2017-07-28T10:14:49.516Z,2.80
2017-07-28T10:17:18.998Z,2.20
2017-07-28T10:19:48.438Z,3.10
2017-07-28T10:22:17.904Z,2.60
2017-07-28T10:24:47.373Z,2.87
2017-07-28T10:27:16.808Z,2.43
2017-07-28T10:29:46.252Z,1.90
2017-07-28T10:32:15.721Z,2.20
2017-07-28T10:34:45.167Z,3.07
2017-07-28T10:37:14.604Z,2.40
2017-07-28T10:39:44.048Z,2.50
2017-07-28T10:42:13.484Z,2.67
2017-07-28T10:44:43.002Z,4.00
2017-07-28T10:47:12.430Z,2.70
2017-07-28T10:49:41.876Z,1.83
2017-07-28T10:52:11.328Z,3.10
2017-07-28T10:54:40.769Z,3.20
2017-07-28T10:57:10.217Z,1.97
2017-07-28T10:59:39.655Z,3.67
2017-07-28T11:02:09.114Z,3.30
2017-07-28T11:04:38.547Z,2.20
2017-07-28T11:07:08.005Z,3.07
2017-07-28T11:09:37.452Z,2.60
2017-07-28T11:12:07.010Z,2.77
2017-07-28T11:14:36.469Z,7.20
2017-07-28T11:17:05.928Z,2.60
2017-07-28T11:19:35.370Z,2.43
2017-07-28T11:22:04.483Z,2.70
2017-07-28T11:24:33.948Z,2.20
2017-07-28T11:27:03.410Z,2.13
2017-07-28T11:29:32.849Z,3.10
2017-07-28T11:32:02.127Z,2.60
2017-07-28T11:34:31.581Z,2.47
2017-07-28T11:37:00.832Z,3.53
2017-07-28T11:39:30.294Z,2.30
2017-07-28T11:41:59.761Z,2.63
2017-07-28T11:44:29.190Z,3.20
2017-07-28T11:46:58.660Z,3.80
2017-07-28T11:49:28.085Z,6.30
2017-07-28T11:51:57.522Z,2.93
2017-07-28T11:54:26.981Z,3.73
2017-07-28T11:56:56.456Z,2.93
2017-07-28T11:59:25.909Z,2.40
2017-07-28T12:01:55.365Z,2.40
2017-07-28T12:04:24.609Z,5.13
2017-07-28T12:06:54.086Z,2.57
2017-07-28T12:09:23.517Z,2.33
2017-07-28T12:11:52.788Z,2.27
2017-07-28T12:14:22.037Z,1.97
2017-07-28T12:16:51.477Z,2.70
2017-07-28T12:19:20.929Z,3.50
2017-07-28T12:21:50.350Z,5.00
2017-07-28T12:24:19.820Z,4.40
2017-07-28T12:26:49.277Z,3.70
2017-07-28T12:29:18.725Z,2.30
2017-07-28T12:31:48.178Z,2.90
2017-07-28T12:34:17.629Z,2.20
2017-07-28T12:36:47.070Z,4.70
2017-07-28T12:39:16.528Z,2.83
2017-07-28T12:41:45.977Z,3.00
2017-07-28T12:44:15.441Z,2.97
2017-07-28T12:46:44.903Z,2.50
2017-07-28T12:49:14.348Z,3.60
2017-07-28T12:51:43.792Z,6.27
2017-07-28T12:54:13.229Z,2.90
2017-07-28T12:56:42.677Z,4.20
2017-07-28T12:59:12.116Z,2.97
2017-07-28T13:01:41.717Z,2.83
2017-07-28T13:04:11.401Z,3.80
2017-07-28T13:06:40.937Z,2.37
2017-07-28T13:09:10.491Z,3.77
2017-07-28T13:11:39.941Z,4.53
2017-07-28T13:14:09.373Z,3.37
2017-07-28T13:16:38.865Z,3.47
2017-07-28T13:19:08.313Z,2.67
2017-07-28T13:21:37.564Z,2.23
2017-07-28T13:24:07.032Z,5.67
2017-07-28T13:26:36.486Z,3.43
2017-07-28T13:29:05.916Z,2.97
2017-07-28T13:31:35.377Z,2.53
2017-07-28T13:34:04.852Z,3.47
2017-07-28T13:36:34.324Z,4.40
2017-07-28T13:39:03.847Z,4.57
2017-07-28T13:41:33.282Z,2.40
2017-07-28T13:44:02.753Z,3.30
2017-07-28T13:46:37.701Z,4.63
2017-07-28T13:49:07.169Z,4.10
2017-07-28T13:51:36.600Z,6.30
2017-07-28T13:54:06.062Z,3.00
2017-07-28T13:56:35.504Z,5.43
2017-07-28T13:59:04.981Z,7.13
2017-07-28T14:01:34.416Z,5.83
2017-07-28T14:04:03.857Z,5.57
2017-07-28T14:06:33.310Z,2.93
2017-07-28T14:09:02.756Z,6.20
2017-07-28T14:11:32.077Z,5.13
2017-07-28T14:14:01.499Z,3.40
2017-07-28T14:16:30.952Z,3.83
2017-07-28T14:19:00.405Z,3.90
2017-07-28T14:21:29.897Z,4.33
2017-07-28T14:24:00.212Z,2.93
2017-07-28T14:26:29.656Z,4.70
2017-07-28T14:28:59.152Z,6.37
2017-07-28T14:31:28.632Z,3.60
2017-07-28T14:33:58.079Z,2.77
2017-07-28T14:36:27.538Z,3.10
2017-07-28T14:38:56.993Z,5.53
2017-07-28T14:41:26.429Z,3.50
2017-07-28T14:43:55.894Z,6.20
2017-07-28T14:46:25.330Z,7.60
2017-07-28T14:48:54.813Z,4.83
2017-07-28T14:51:24.268Z,5.50
2017-07-28T14:53:53.727Z,2.80
2017-07-28T14:56:23.167Z,6.70
2017-07-28T14:58:52.622Z,5.77
2017-07-28T15:01:22.085Z,3.97
2017-07-28T15:03:51.524Z,7.00
2017-07-28T15:06:20.968Z,4.37
2017-07-28T15:08:50.415Z,3.53
2017-07-28T15:11:19.862Z,6.37
2017-07-28T15:13:49.302Z,3.13
2017-07-28T15:16:18.558Z,3.13
2017-07-28T15:18:48.004Z,5.43
2017-07-28T15:21:17.465Z,3.27
2017-07-28T15:23:46.936Z,4.77
2017-07-28T15:26:16.382Z,4.70
2017-07-28T15:28:45.828Z,8.00
2017-07-28T15:31:15.294Z,6.13
2017-07-28T15:33:44.737Z,6.83
2017-07-28T15:36:14.243Z,7.70
2017-07-28T15:38:43.658Z,6.27
2017-07-28T15:41:13.123Z,6.37
2017-07-28T15:43:42.597Z,5.10
2017-07-28T15:46:12.062Z,5.40
2017-07-28T15:48:41.504Z,5.40
2017-07-28T15:51:10.977Z,5.30
2017-07-28T15:53:40.429Z,6.03
2017-07-28T15:56:09.872Z,5.20
2017-07-28T15:58:39.322Z,3.37
2017-07-28T16:01:08.760Z,10.10
2017-07-28T16:03:38.084Z,4.47
2017-07-28T16:06:07.543Z,4.40
2017-07-28T16:08:36.997Z,7.40
2017-07-28T16:11:06.442Z,3.80
2017-07-28T16:13:35.883Z,7.93
2017-07-28T16:16:06.081Z,4.50
2017-07-28T16:18:35.531Z,8.37
2017-07-28T16:21:05.000Z,3.27
2017-07-28T16:23:34.457Z,11.97
2017-07-28T16:26:03.907Z,5.97
2017-07-28T16:28:33.345Z,4.10
2017-07-28T16:31:02.790Z,3.93
2017-07-28T16:33:32.228Z,6.30
2017-07-28T16:36:01.685Z,5.20
2017-07-28T16:38:31.148Z,4.40
2017-07-28T16:41:00.601Z,7.00
2017-07-28T16:43:30.046Z,9.23
2017-07-28T16:45:59.486Z,8.97
2017-07-28T16:48:28.917Z,6.27
2017-07-28T16:50:59.065Z,7.73
2017-07-28T16:53:28.506Z,5.30
2017-07-28T16:55:57.940Z,4.40
2017-07-28T16:58:27.389Z,7.00
2017-07-28T17:00:56.834Z,11.27
2017-07-28T17:03:26.341Z,7.00
2017-07-28T17:05:55.781Z,5.03
2017-07-28T17:08:25.241Z,6.13
2017-07-28T17:10:54.693Z,3.83
2017-07-28T17:13:23.959Z,4.93
2017-07-28T17:15:53.403Z,7.90
2017-07-28T17:18:22.849Z,5.03
2017-07-28T17:20:52.293Z,4.93
2017-07-28T17:23:21.759Z,6.07
2017-07-28T17:25:51.228Z,4.30
2017-07-28T17:28:20.696Z,4.93
2017-07-28T17:30:50.195Z,7.67
2017-07-28T17:33:19.464Z,5.90
2017-07-28T17:35:48.713Z,4.17
2017-07-28T17:38:17.974Z,8.40
2017-07-28T17:40:47.420Z,4.67
2017-07-28T17:43:16.660Z,4.80
2017-07-28T17:45:46.111Z,3.30
2017-07-28T17:48:15.556Z,4.60
2017-07-28T17:50:45.022Z,4.70
2017-07-28T17:53:14.467Z,3.90
2017-07-28T17:55:43.981Z,3.00
2017-07-28T17:58:13.419Z,5.50
2017-07-28T18:00:42.865Z,5.47
2017-07-28T18:03:12.321Z,3.83
2017-07-28T18:05:41.767Z,4.63
2017-07-28T18:08:11.218Z,2.57
2017-07-28T18:10:40.662Z,4.80
2017-07-28T18:13:10.106Z,4.90
2017-07-28T18:15:39.568Z,7.27
2017-07-28T18:18:09.029Z,4.07
2017-07-28T18:20:38.488Z,3.33
2017-07-28T18:23:07.944Z,7.70
2017-07-28T18:25:37.392Z,6.80
2017-07-28T18:28:06.848Z,7.23
2017-07-28T18:30:36.303Z,4.50
2017-07-28T18:33:05.749Z,5.30
2017-07-28T18:35:35.209Z,8.40
2017-07-28T18:38:04.695Z,5.93
2017-07-28T18:40:34.135Z,5.57
2017-07-28T18:43:03.666Z,4.20
2017-07-28T18:45:33.121Z,4.97
2017-07-28T18:48:02.577Z,6.63
2017-07-28T18:50:32.015Z,10.00
2017-07-28T18:53:01.445Z,7.93
2017-07-28T18:55:30.897Z,3.73
2017-07-28T18:58:00.345Z,6.13
2017-07-28T19:00:29.816Z,4.93
2017-07-28T19:02:59.115Z,8.50
2017-07-28T19:05:28.602Z,6.00
2017-07-28T19:07:58.039Z,6.27
2017-07-28T19:10:27.478Z,5.17
2017-07-28T19:12:56.922Z,4.37
2017-07-28T19:15:26.392Z,5.20
2017-07-28T19:17:55.869Z,6.57
2017-07-28T19:20:25.356Z,5.10
2017-07-28T19:22:54.613Z,5.37
2017-07-28T19:25:24.088Z,8.07
2017-07-28T19:27:53.527Z,7.23
2017-07-28T19:30:23.019Z,4.33
2017-07-28T19:32:52.467Z,5.40
2017-07-28T19:35:21.973Z,6.13
2017-07-28T19:37:51.404Z,5.30
2017-07-28T19:40:20.956Z,4.07
2017-07-28T19:42:50.396Z,5.40
2017-07-28T19:45:19.940Z,5.30
2017-07-28T19:47:49.397Z,6.27
2017-07-28T19:50:18.939Z,6.87
2017-07-28T19:52:48.542Z,5.97
2017-07-28T19:55:18.016Z,10.13
2017-07-28T19:57:47.471Z,8.63
2017-07-28T20:00:16.952Z,6.17
2017-07-28T20:02:46.390Z,5.60
2017-07-28T20:05:15.882Z,10.80
2017-07-28T20:07:45.365Z,10.90
2017-07-28T20:10:14.885Z,5.53
2017-07-28T20:12:44.339Z,6.20
2017-07-28T20:15:13.676Z,8.33
2017-07-28T20:17:43.148Z,7.67
2017-07-28T20:20:12.652Z,11.70
2017-07-28T20:22:42.089Z,6.37
2017-07-28T20:25:11.596Z,15.73
2017-07-28T20:27:41.056Z,27.20
2017-07-28T20:30:10.568Z,16.47
2017-07-28T20:32:40.030Z,14.53
2017-07-28T20:35:09.523Z,12.40
2017-07-28T20:37:38.975Z,12.20
2017-07-28T20:40:08.476Z,9.77
2017-07-28T20:42:38.244Z,9.35
2017-07-28T20:45:07.750Z,9.43
2017-07-28T20:47:37.212Z,25.30
2017-07-28T20:50:06.722Z,10.73
2017-07-28T20:52:36.201Z,14.37
2017-07-28T20:55:05.826Z,11.87
2017-07-28T20:57:35.557Z,16.70
2017-07-28T21:00:05.079Z,10.60
2017-07-28T21:02:34.532Z,12.35
2017-07-28T21:05:04.332Z,14.00
2017-07-28T21:07:34.062Z,13.90
2017-07-28T21:10:03.687Z,15.35
2017-07-28T21:12:33.428Z,12.75
2017-07-28T21:15:03.278Z,9.20
2017-07-28T21:17:32.843Z,12.27
2017-07-28T21:20:02.630Z,15.73
2017-07-28T21:22:32.385Z,14.75
2017-07-28T21:25:02.206Z,10.57
2017-07-28T21:27:31.940Z,10.80
2017-07-28T21:30:01.690Z,7.57
2017-07-28T21:32:31.414Z,18.30
2017-07-28T21:35:01.167Z,14.82
2017-07-28T21:37:30.938Z,13.18
2017-07-28T21:40:00.722Z,8.55
2017-07-28T21:42:30.449Z,9.63
2017-07-28T21:45:00.159Z,9.75
2017-07-28T21:47:29.904Z,10.68
2017-07-28T21:49:59.825Z,9.80
2017-07-28T21:52:29.549Z,13.05
2017-07-28T21:54:59.304Z,16.05
2017-07-28T21:57:29.028Z,11.07
2017-07-28T21:59:58.802Z,9.43
2017-07-28T22:02:28.541Z,8.82
2017-07-28T22:04:58.289Z,10.02
2017-07-28T22:07:27.934Z,8.50
2017-07-28T22:09:57.694Z,13.43
2017-07-28T22:12:27.942Z,13.77
2017-07-28T22:14:57.678Z,11.20
2017-07-28T22:17:27.452Z,8.20
2017-07-28T22:19:57.190Z,7.65
2017-07-28T22:22:26.956Z,12.35
2017-07-28T22:24:57.365Z,10.80
2017-07-28T22:27:27.108Z,10.52
2017-07-28T22:29:56.856Z,10.52
2017-07-28T22:32:26.609Z,12.02
2017-07-28T22:34:56.355Z,11.90
2017-07-28T22:37:26.117Z,14.87
2017-07-28T22:39:55.849Z,9.95
2017-07-28T22:42:25.576Z,13.60
2017-07-28T22:44:55.329Z,14.55
2017-07-28T22:47:25.181Z,11.60
2017-07-28T22:49:54.954Z,12.23
2017-07-28T22:52:24.673Z,12.73
2017-07-28T22:54:54.421Z,12.25
2017-07-28T22:57:24.161Z,11.02
2017-07-28T22:59:53.920Z,19.45
2017-07-28T23:02:23.692Z,14.23
2017-07-28T23:04:53.467Z,18.25
2017-07-28T23:07:23.184Z,14.25
2017-07-28T23:09:52.952Z,12.88
2017-07-28T23:12:22.695Z,15.23
2017-07-28T23:14:52.437Z,16.37
2017-07-28T23:17:22.188Z,19.45
2017-07-28T23:19:51.920Z,14.05
2017-07-28T23:22:21.648Z,12.25
2017-07-28T23:24:51.340Z,18.70
2017-07-28T23:27:21.083Z,12.73
2017-07-28T23:29:50.810Z,9.27
2017-07-28T23:32:20.561Z,12.02
2017-07-28T23:34:50.333Z,10.15
2017-07-28T23:37:20.097Z,17.10
2017-07-28T23:39:49.839Z,16.70
2017-07-28T23:42:19.598Z,20.50
2017-07-28T23:44:49.374Z,14.75
2017-07-28T23:47:19.126Z,25.92
2017-07-28T23:49:48.881Z,15.60
2017-07-28T23:52:18.644Z,18.77
2017-07-28T23:54:48.388Z,13.40
2017-07-28T23:57:18.123Z,11.80
2017-07-28T23:59:47.884Z,15.43
